sensor_id;sensor_type;location;lat;lon;timestamp;P1;durP1;ratioP1;P2;durP2;ratioP2
36441;SDS011;73131;50.820;16.274;2023-12-20T00:00:37;5.43;;;3.90;;
36441;SDS011;73131;50.820;16.274;2023-12-20T00:04:07;7.22;;;4.30;;
36441;SDS011;73131;50.820;16.274;2023-12-20T00:07:08;4.15;;;3.63;;
36441;SDS011;73131;50.820;16.274;2023-12-20T00:10:11;5.18;;;3.75;;
36441;SDS011;73131;50.820;16.274;2023-12-20T00:13:13;13.57;;;7.13;;
36441;SDS011;73131;50.820;16.274;2023-12-20T00:16:17;8.98;;;5.15;;
36441;SDS011;73131;50.820;16.274;2023-12-20T00:19:18;5.10;;;3.67;;
36441;SDS011;73131;50.820;16.274;2023-12-20T00:22:22;5.25;;;3.53;;
36441;SDS011;73131;50.820;16.274;2023-12-20T00:25:23;4.15;;;3.20;;
36441;SDS011;73131;50.820;16.274;2023-12-20T00:28:25;5.70;;;3.63;;
36441;SDS011;73131;50.820;16.274;2023-12-20T00:31:28;5.10;;;3.25;;
36441;SDS011;73131;50.820;16.274;2023-12-20T00:34:29;5.50;;;3.30;;
36441;SDS011;73131;50.820;16.274;2023-12-20T00:37:30;6.32;;;3.70;;
36441;SDS011;73131;50.820;16.274;2023-12-20T00:40:33;5.05;;;3.35;;
36441;SDS011;73131;50.820;16.274;2023-12-20T00:43:37;4.95;;;3.42;;
36441;SDS011;73131;50.820;16.274;2023-12-20T00:46:40;6.75;;;3.38;;
36441;SDS011;73131;50.820;16.274;2023-12-20T00:49:41;6.78;;;4.03;;
36441;SDS011;73131;50.820;16.274;2023-12-20T00:52:42;6.78;;;4.53;;
36441;SDS011;73131;50.820;16.274;2023-12-20T00:55:43;6.13;;;3.70;;
36441;SDS011;73131;50.820;16.274;2023-12-20T00:58:45;5.05;;;3.58;;
36441;SDS011;73131;50.820;16.274;2023-12-20T01:01:48;6.55;;;4.05;;
36441;SDS011;73131;50.820;16.274;2023-12-20T01:04:49;5.22;;;3.33;;
36441;SDS011;73131;50.820;16.274;2023-12-20T01:07:50;7.07;;;4.47;;
36441;SDS011;73131;50.820;16.274;2023-12-20T01:10:51;5.75;;;4.32;;
36441;SDS011;73131;50.820;16.274;2023-12-20T01:13:54;7.05;;;4.00;;
36441;SDS011;73131;50.820;16.274;2023-12-20T01:17:01;8.00;;;4.75;;
36441;SDS011;73131;50.820;16.274;2023-12-20T01:20:02;6.93;;;4.18;;
36441;SDS011;73131;50.820;16.274;2023-12-20T01:23:06;5.45;;;3.75;;
36441;SDS011;73131;50.820;16.274;2023-12-20T01:26:07;5.25;;;4.10;;
36441;SDS011;73131;50.820;16.274;2023-12-20T01:29:08;7.00;;;4.47;;
36441;SDS011;73131;50.820;16.274;2023-12-20T01:32:09;5.97;;;4.90;;
36441;SDS011;73131;50.820;16.274;2023-12-20T01:35:10;9.35;;;5.90;;
36441;SDS011;73131;50.820;16.274;2023-12-20T01:38:13;20.92;;;12.02;;
36441;SDS011;73131;50.820;16.274;2023-12-20T01:41:14;6.03;;;3.88;;
36441;SDS011;73131;50.820;16.274;2023-12-20T01:44:17;6.20;;;3.45;;
36441;SDS011;73131;50.820;16.274;2023-12-20T01:47:18;5.97;;;3.80;;
36441;SDS011;73131;50.820;16.274;2023-12-20T01:50:19;4.93;;;3.60;;
36441;SDS011;73131;50.820;16.274;2023-12-20T01:53:24;4.90;;;3.75;;
36441;SDS011;73131;50.820;16.274;2023-12-20T01:56:29;4.97;;;3.38;;
36441;SDS011;73131;50.820;16.274;2023-12-20T01:59:34;5.35;;;3.25;;
36441;SDS011;73131;50.820;16.274;2023-12-20T02:02:36;5.00;;;3.08;;
36441;SDS011;73131;50.820;16.274;2023-12-20T02:05:41;4.40;;;3.20;;
36441;SDS011;73131;50.820;16.274;2023-12-20T02:08:41;4.30;;;3.40;;
36441;SDS011;73131;50.820;16.274;2023-12-20T02:11:43;4.50;;;3.20;;
36441;SDS011;73131;50.820;16.274;2023-12-20T02:14:46;5.65;;;3.25;;
36441;SDS011;73131;50.820;16.274;2023-12-20T02:17:47;4.68;;;3.30;;
36441;SDS011;73131;50.820;16.274;2023-12-20T02:20:50;4.60;;;3.17;;
36441;SDS011;73131;50.820;16.274;2023-12-20T02:23:54;5.07;;;3.22;;
36441;SDS011;73131;50.820;16.274;2023-12-20T02:26:54;3.90;;;2.42;;
36441;SDS011;73131;50.820;16.274;2023-12-20T02:29:56;4.10;;;2.80;;
36441;SDS011;73131;50.820;16.274;2023-12-20T02:32:57;2.78;;;2.38;;
36441;SDS011;73131;50.820;16.274;2023-12-20T02:36:03;3.25;;;2.35;;
36441;SDS011;73131;50.820;16.274;2023-12-20T02:39:05;3.72;;;2.58;;
36441;SDS011;73131;50.820;16.274;2023-12-20T02:42:06;3.00;;;2.50;;
36441;SDS011;73131;50.820;16.274;2023-12-20T02:45:07;3.67;;;2.50;;
36441;SDS011;73131;50.820;16.274;2023-12-20T02:48:11;3.00;;;2.33;;
36441;SDS011;73131;50.820;16.274;2023-12-20T02:51:12;4.13;;;2.50;;
36441;SDS011;73131;50.820;16.274;2023-12-20T02:54:21;4.63;;;2.80;;
36441;SDS011;73131;50.820;16.274;2023-12-20T02:57:22;3.85;;;2.60;;
36441;SDS011;73131;50.820;16.274;2023-12-20T03:00:25;5.95;;;3.97;;
36441;SDS011;73131;50.820;16.274;2023-12-20T03:03:26;3.72;;;2.45;;
36441;SDS011;73131;50.820;16.274;2023-12-20T03:06:28;3.47;;;2.30;;
36441;SDS011;73131;50.820;16.274;2023-12-20T03:09:31;3.05;;;1.95;;
36441;SDS011;73131;50.820;16.274;2023-12-20T03:12:32;3.60;;;2.70;;
36441;SDS011;73131;50.820;16.274;2023-12-20T03:15:33;4.10;;;2.50;;
36441;SDS011;73131;50.820;16.274;2023-12-20T03:18:35;2.78;;;2.30;;
36441;SDS011;73131;50.820;16.274;2023-12-20T03:21:38;3.97;;;2.50;;
36441;SDS011;73131;50.820;16.274;2023-12-20T03:24:39;3.47;;;2.47;;
36441;SDS011;73131;50.820;16.274;2023-12-20T03:27:47;2.92;;;2.00;;
36441;SDS011;73131;50.820;16.274;2023-12-20T03:30:52;3.95;;;2.17;;
36441;SDS011;73131;50.820;16.274;2023-12-20T03:33:55;5.22;;;2.42;;
36441;SDS011;73131;50.820;16.274;2023-12-20T03:36:56;3.80;;;2.85;;
36441;SDS011;73131;50.820;16.274;2023-12-20T03:39:59;4.30;;;2.53;;
36441;SDS011;73131;50.820;16.274;2023-12-20T03:43:01;3.67;;;2.40;;
36441;SDS011;73131;50.820;16.274;2023-12-20T03:46:04;4.43;;;2.65;;
36441;SDS011;73131;50.820;16.274;2023-12-20T03:49:08;3.42;;;2.40;;
36441;SDS011;73131;50.820;16.274;2023-12-20T03:52:11;3.60;;;2.20;;
36441;SDS011;73131;50.820;16.274;2023-12-20T03:55:12;4.25;;;1.92;;
36441;SDS011;73131;50.820;16.274;2023-12-20T03:58:16;2.97;;;2.35;;
36441;SDS011;73131;50.820;16.274;2023-12-20T04:01:17;4.20;;;2.45;;
36441;SDS011;73131;50.820;16.274;2023-12-20T04:04:20;3.13;;;2.28;;
36441;SDS011;73131;50.820;16.274;2023-12-20T04:07:21;6.47;;;2.53;;
36441;SDS011;73131;50.820;16.274;2023-12-20T04:10:24;3.38;;;2.38;;
36441;SDS011;73131;50.820;16.274;2023-12-20T04:13:29;5.05;;;2.63;;
36441;SDS011;73131;50.820;16.274;2023-12-20T04:16:30;2.85;;;1.92;;
36441;SDS011;73131;50.820;16.274;2023-12-20T04:19:31;4.57;;;2.35;;
36441;SDS011;73131;50.820;16.274;2023-12-20T04:22:34;3.50;;;2.58;;
36441;SDS011;73131;50.820;16.274;2023-12-20T04:25:36;4.35;;;2.42;;
36441;SDS011;73131;50.820;16.274;2023-12-20T04:28:36;4.38;;;2.55;;
36441;SDS011;73131;50.820;16.274;2023-12-20T04:31:37;3.13;;;2.35;;
36441;SDS011;73131;50.820;16.274;2023-12-20T04:34:38;4.15;;;2.40;;
36441;SDS011;73131;50.820;16.274;2023-12-20T04:37:44;2.70;;;2.40;;
36441;SDS011;73131;50.820;16.274;2023-12-20T04:40:49;4.00;;;2.30;;
36441;SDS011;73131;50.820;16.274;2023-12-20T04:43:53;2.80;;;1.90;;
36441;SDS011;73131;50.820;16.274;2023-12-20T04:46:58;5.38;;;2.58;;
36441;SDS011;73131;50.820;16.274;2023-12-20T04:50:00;3.67;;;2.28;;
36441;SDS011;73131;50.820;16.274;2023-12-20T04:53:04;5.07;;;2.30;;
36441;SDS011;73131;50.820;16.274;2023-12-20T04:56:06;3.60;;;2.50;;
36441;SDS011;73131;50.820;16.274;2023-12-20T04:59:06;3.35;;;2.35;;
36441;SDS011;73131;50.820;16.274;2023-12-20T05:02:08;3.63;;;2.40;;
36441;SDS011;73131;50.820;16.274;2023-12-20T05:05:08;3.85;;;2.47;;
36441;SDS011;73131;50.820;16.274;2023-12-20T05:08:12;2.88;;;1.90;;
36441;SDS011;73131;50.820;16.274;2023-12-20T05:11:13;3.38;;;2.17;;
36441;SDS011;73131;50.820;16.274;2023-12-20T05:14:20;5.28;;;2.60;;
36441;SDS011;73131;50.820;16.274;2023-12-20T05:17:23;2.92;;;1.98;;
36441;SDS011;73131;50.820;16.274;2023-12-20T05:20:26;3.22;;;2.50;;
36441;SDS011;73131;50.820;16.274;2023-12-20T05:23:29;2.70;;;1.80;;
36441;SDS011;73131;50.820;16.274;2023-12-20T05:26:30;2.97;;;1.98;;
36441;SDS011;73131;50.820;16.274;2023-12-20T05:29:33;3.55;;;2.10;;
36441;SDS011;73131;50.820;16.274;2023-12-20T05:32:37;3.47;;;2.10;;
36441;SDS011;73131;50.820;16.274;2023-12-20T05:35:40;3.63;;;1.98;;
36441;SDS011;73131;50.820;16.274;2023-12-20T05:38:41;3.75;;;1.95;;
36441;SDS011;73131;50.820;16.274;2023-12-20T05:41:42;2.33;;;1.52;;
36441;SDS011;73131;50.820;16.274;2023-12-20T05:44:43;3.00;;;1.75;;
36441;SDS011;73131;50.820;16.274;2023-12-20T05:47:46;3.30;;;2.13;;
36441;SDS011;73131;50.820;16.274;2023-12-20T05:50:47;3.17;;;2.00;;
36441;SDS011;73131;50.820;16.274;2023-12-20T05:53:51;3.05;;;2.00;;
36441;SDS011;73131;50.820;16.274;2023-12-20T05:56:54;3.03;;;2.05;;
36441;SDS011;73131;50.820;16.274;2023-12-20T05:59:57;3.50;;;1.88;;
36441;SDS011;73131;50.820;16.274;2023-12-20T06:03:01;2.60;;;1.33;;
36441;SDS011;73131;50.820;16.274;2023-12-20T06:06:08;3.35;;;1.58;;
36441;SDS011;73131;50.820;16.274;2023-12-20T06:09:13;1.75;;;1.27;;
36441;SDS011;73131;50.820;16.274;2023-12-20T06:12:16;2.22;;;1.38;;
36441;SDS011;73131;50.820;16.274;2023-12-20T06:15:20;1.80;;;1.15;;
36441;SDS011;73131;50.820;16.274;2023-12-20T06:18:23;3.05;;;1.48;;
36441;SDS011;73131;50.820;16.274;2023-12-20T06:21:25;3.13;;;1.60;;
36441;SDS011;73131;50.820;16.274;2023-12-20T06:24:28;2.85;;;1.42;;
36441;SDS011;73131;50.820;16.274;2023-12-20T06:27:30;1.85;;;1.00;;
36441;SDS011;73131;50.820;16.274;2023-12-20T06:30:35;4.03;;;2.22;;
36441;SDS011;73131;50.820;16.274;2023-12-20T06:33:36;2.97;;;1.30;;
36441;SDS011;73131;50.820;16.274;2023-12-20T06:36:41;1.38;;;0.98;;
36441;SDS011;73131;50.820;16.274;2023-12-20T06:39:42;2.80;;;1.55;;
36441;SDS011;73131;50.820;16.274;2023-12-20T06:42:43;1.98;;;1.35;;
36441;SDS011;73131;50.820;16.274;2023-12-20T06:45:45;2.75;;;1.40;;
36441;SDS011;73131;50.820;16.274;2023-12-20T06:48:46;2.78;;;1.55;;
36441;SDS011;73131;50.820;16.274;2023-12-20T06:51:49;2.83;;;1.58;;
36441;SDS011;73131;50.820;16.274;2023-12-20T06:54:50;1.92;;;1.10;;
36441;SDS011;73131;50.820;16.274;2023-12-20T06:57:51;2.28;;;1.25;;
36441;SDS011;73131;50.820;16.274;2023-12-20T07:00:52;2.67;;;1.25;;
36441;SDS011;73131;50.820;16.274;2023-12-20T07:03:53;2.88;;;1.55;;
36441;SDS011;73131;50.820;16.274;2023-12-20T07:06:54;2.92;;;1.52;;
36441;SDS011;73131;50.820;16.274;2023-12-20T07:10:00;3.13;;;1.88;;
36441;SDS011;73131;50.820;16.274;2023-12-20T07:13:04;2.95;;;1.30;;
36441;SDS011;73131;50.820;16.274;2023-12-20T07:16:07;3.35;;;2.15;;
36441;SDS011;73131;50.820;16.274;2023-12-20T07:19:10;4.72;;;1.60;;
36441;SDS011;73131;50.820;16.274;2023-12-20T07:22:12;2.95;;;1.48;;
36441;SDS011;73131;50.820;16.274;2023-12-20T07:25:15;5.22;;;2.10;;
36441;SDS011;73131;50.820;16.274;2023-12-20T07:28:21;5.20;;;2.28;;
36441;SDS011;73131;50.820;16.274;2023-12-20T07:31:22;5.50;;;1.70;;
36441;SDS011;73131;50.820;16.274;2023-12-20T07:34:28;6.30;;;1.80;;
36441;SDS011;73131;50.820;16.274;2023-12-20T07:37:30;2.65;;;0.98;;
36441;SDS011;73131;50.820;16.274;2023-12-20T07:40:31;1.83;;;0.68;;
36441;SDS011;73131;50.820;16.274;2023-12-20T07:43:32;1.75;;;0.82;;
36441;SDS011;73131;50.820;16.274;2023-12-20T07:46:34;1.85;;;0.77;;
36441;SDS011;73131;50.820;16.274;2023-12-20T07:49:37;2.78;;;1.10;;
36441;SDS011;73131;50.820;16.274;2023-12-20T07:52:38;3.08;;;1.00;;
36441;SDS011;73131;50.820;16.274;2023-12-20T07:55:39;6.35;;;3.03;;
36441;SDS011;73131;50.820;16.274;2023-12-20T07:58:43;2.63;;;1.08;;
36441;SDS011;73131;50.820;16.274;2023-12-20T08:01:45;1.67;;;0.93;;
36441;SDS011;73131;50.820;16.274;2023-12-20T08:04:48;1.13;;;0.90;;
36441;SDS011;73131;50.820;16.274;2023-12-20T08:07:49;1.92;;;0.98;;
36441;SDS011;73131;50.820;16.274;2023-12-20T08:10:50;2.20;;;0.82;;
36441;SDS011;73131;50.820;16.274;2023-12-20T08:13:51;2.15;;;1.30;;
36441;SDS011;73131;50.820;16.274;2023-12-20T08:16:52;3.08;;;1.15;;
36441;SDS011;73131;50.820;16.274;2023-12-20T08:19:53;2.35;;;1.02;;
36441;SDS011;73131;50.820;16.274;2023-12-20T08:22:54;1.85;;;0.98;;
36441;SDS011;73131;50.820;16.274;2023-12-20T08:25:55;0.63;;;0.40;;
36441;SDS011;73131;50.820;16.274;2023-12-20T08:28:56;1.65;;;0.63;;
36441;SDS011;73131;50.820;16.274;2023-12-20T08:31:57;1.38;;;0.68;;
36441;SDS011;73131;50.820;16.274;2023-12-20T08:34:58;1.17;;;0.40;;
36441;SDS011;73131;50.820;16.274;2023-12-20T08:38:01;1.27;;;0.50;;
36441;SDS011;73131;50.820;16.274;2023-12-20T08:41:07;1.52;;;0.70;;
36441;SDS011;73131;50.820;16.274;2023-12-20T08:44:15;0.73;;;0.40;;
36441;SDS011;73131;50.820;16.274;2023-12-20T08:47:17;2.20;;;0.63;;
36441;SDS011;73131;50.820;16.274;2023-12-20T08:50:20;1.48;;;0.75;;
36441;SDS011;73131;50.820;16.274;2023-12-20T08:53:21;1.35;;;0.60;;
36441;SDS011;73131;50.820;16.274;2023-12-20T08:56:22;1.42;;;0.60;;
36441;SDS011;73131;50.820;16.274;2023-12-20T08:59:23;1.30;;;0.50;;
36441;SDS011;73131;50.820;16.274;2023-12-20T09:02:26;1.08;;;0.50;;
36441;SDS011;73131;50.820;16.274;2023-12-20T09:05:27;0.60;;;0.40;;
36441;SDS011;73131;50.820;16.274;2023-12-20T09:08:31;1.35;;;0.50;;
36441;SDS011;73131;50.820;16.274;2023-12-20T09:11:32;1.85;;;0.50;;
36441;SDS011;73131;50.820;16.274;2023-12-20T09:14:33;2.17;;;0.55;;
36441;SDS011;73131;50.820;16.274;2023-12-20T09:17:36;3.25;;;0.80;;
36441;SDS011;73131;50.820;16.274;2023-12-20T09:20:42;2.35;;;0.75;;
36441;SDS011;73131;50.820;16.274;2023-12-20T09:23:43;0.95;;;0.68;;
36441;SDS011;73131;50.820;16.274;2023-12-20T09:26:44;1.85;;;1.02;;
36441;SDS011;73131;50.820;16.274;2023-12-20T09:29:47;1.13;;;0.57;;
36441;SDS011;73131;50.820;16.274;2023-12-20T09:32:53;1.20;;;0.70;;
36441;SDS011;73131;50.820;16.274;2023-12-20T09:35:57;1.33;;;0.63;;
36441;SDS011;73131;50.820;16.274;2023-12-20T09:39:00;2.45;;;0.82;;
36441;SDS011;73131;50.820;16.274;2023-12-20T09:42:02;2.22;;;0.63;;
36441;SDS011;73131;50.820;16.274;2023-12-20T09:45:08;1.98;;;0.85;;
36441;SDS011;73131;50.820;16.274;2023-12-20T09:48:10;0.70;;;0.70;;
36441;SDS011;73131;50.820;16.274;2023-12-20T09:51:14;2.28;;;0.90;;
36441;SDS011;73131;50.820;16.274;2023-12-20T09:54:16;1.67;;;0.73;;
36441;SDS011;73131;50.820;16.274;2023-12-20T09:57:23;1.42;;;0.52;;
36441;SDS011;73131;50.820;16.274;2023-12-20T10:00:26;1.90;;;0.95;;
36441;SDS011;73131;50.820;16.274;2023-12-20T10:03:27;1.55;;;0.77;;
36441;SDS011;73131;50.820;16.274;2023-12-20T10:06:29;1.50;;;0.82;;
36441;SDS011;73131;50.820;16.274;2023-12-20T10:09:31;2.70;;;1.25;;
36441;SDS011;73131;50.820;16.274;2023-12-20T10:12:33;5.88;;;2.50;;
36441;SDS011;73131;50.820;16.274;2023-12-20T10:15:34;13.10;;;7.10;;
36441;SDS011;73131;50.820;16.274;2023-12-20T10:18:40;12.73;;;5.88;;
36441;SDS011;73131;50.820;16.274;2023-12-20T10:21:41;7.78;;;4.15;;
36441;SDS011;73131;50.820;16.274;2023-12-20T10:24:42;4.57;;;2.85;;
36441;SDS011;73131;50.820;16.274;2023-12-20T10:27:43;3.13;;;1.55;;
36441;SDS011;73131;50.820;16.274;2023-12-20T10:30:47;2.88;;;1.70;;
36441;SDS011;73131;50.820;16.274;2023-12-20T10:33:50;9.23;;;5.22;;
36441;SDS011;73131;50.820;16.274;2023-12-20T10:36:51;6.50;;;3.53;;
36441;SDS011;73131;50.820;16.274;2023-12-20T10:39:55;6.15;;;3.97;;
36441;SDS011;73131;50.820;16.274;2023-12-20T10:42:58;4.25;;;2.00;;
36441;SDS011;73131;50.820;16.274;2023-12-20T10:46:00;2.30;;;1.85;;
36441;SDS011;73131;50.820;16.274;2023-12-20T10:49:06;2.10;;;0.90;;
36441;SDS011;73131;50.820;16.274;2023-12-20T10:52:13;1.60;;;1.00;;
36441;SDS011;73131;50.820;16.274;2023-12-20T10:55:19;4.40;;;2.75;;
36441;SDS011;73131;50.820;16.274;2023-12-20T10:58:20;3.13;;;1.95;;
36441;SDS011;73131;50.820;16.274;2023-12-20T11:01:24;2.42;;;1.08;;
36441;SDS011;73131;50.820;16.274;2023-12-20T11:04:36;1.70;;;1.10;;
36441;SDS011;73131;50.820;16.274;2023-12-20T11:07:50;4.40;;;1.70;;
36441;SDS011;73131;50.820;16.274;2023-12-20T11:14:34;1.77;;;1.00;;
36441;SDS011;73131;50.820;16.274;2023-12-20T11:17:44;1.50;;;1.00;;
36441;SDS011;73131;50.820;16.274;2023-12-20T11:20:56;2.13;;;0.82;;
36441;SDS011;73131;50.820;16.274;2023-12-20T11:24:05;2.22;;;1.05;;
36441;SDS011;73131;50.820;16.274;2023-12-20T11:27:08;1.33;;;0.90;;
36441;SDS011;73131;50.820;16.274;2023-12-20T11:30:09;2.67;;;0.80;;
36441;SDS011;73131;50.820;16.274;2023-12-20T11:33:11;2.28;;;1.10;;
36441;SDS011;73131;50.820;16.274;2023-12-20T11:36:15;2.13;;;0.93;;
36441;SDS011;73131;50.820;16.274;2023-12-20T11:39:21;2.38;;;1.00;;
36441;SDS011;73131;50.820;16.274;2023-12-20T11:42:22;1.95;;;0.90;;
36441;SDS011;73131;50.820;16.274;2023-12-20T11:45:24;0.60;;;0.60;;
36441;SDS011;73131;50.820;16.274;2023-12-20T11:48:26;2.63;;;0.82;;
36441;SDS011;73131;50.820;16.274;2023-12-20T11:51:27;1.92;;;0.75;;
36441;SDS011;73131;50.820;16.274;2023-12-20T11:54:30;1.00;;;0.40;;
36441;SDS011;73131;50.820;16.274;2023-12-20T11:57:32;0.52;;;0.43;;
36441;SDS011;73131;50.820;16.274;2023-12-20T12:00:35;1.30;;;0.40;;
36441;SDS011;73131;50.820;16.274;2023-12-20T12:03:37;1.25;;;0.60;;
36441;SDS011;73131;50.820;16.274;2023-12-20T12:06:41;2.22;;;0.60;;
36441;SDS011;73131;50.820;16.274;2023-12-20T12:09:42;3.50;;;0.60;;
36441;SDS011;73131;50.820;16.274;2023-12-20T12:12:44;1.58;;;0.50;;
36441;SDS011;73131;50.820;16.274;2023-12-20T12:15:45;1.88;;;0.70;;
36441;SDS011;73131;50.820;16.274;2023-12-20T12:18:54;2.20;;;0.60;;
36441;SDS011;73131;50.820;16.274;2023-12-20T12:22:07;2.30;;;0.70;;
36441;SDS011;73131;50.820;16.274;2023-12-20T12:25:22;1.40;;;0.52;;
36441;SDS011;73131;50.820;16.274;2023-12-20T12:28:25;3.05;;;0.80;;
36441;SDS011;73131;50.820;16.274;2023-12-20T12:31:28;4.00;;;1.10;;
36441;SDS011;73131;50.820;16.274;2023-12-20T12:34:33;1.10;;;1.00;;
36441;SDS011;73131;50.820;16.274;2023-12-20T12:37:40;2.75;;;1.75;;
36441;SDS011;73131;50.820;16.274;2023-12-20T12:40:43;5.07;;;1.95;;
36441;SDS011;73131;50.820;16.274;2023-12-20T12:43:44;1.95;;;1.10;;
36441;SDS011;73131;50.820;16.274;2023-12-20T12:46:45;1.73;;;0.57;;
36441;SDS011;73131;50.820;16.274;2023-12-20T12:49:46;1.45;;;0.80;;
36441;SDS011;73131;50.820;16.274;2023-12-20T12:52:51;2.65;;;0.60;;
36441;SDS011;73131;50.820;16.274;2023-12-20T12:55:52;2.13;;;0.70;;
36441;SDS011;73131;50.820;16.274;2023-12-20T12:58:57;2.17;;;0.90;;
36441;SDS011;73131;50.820;16.274;2023-12-20T13:01:58;1.55;;;0.75;;
36441;SDS011;73131;50.820;16.274;2023-12-20T13:05:04;2.53;;;0.50;;
36441;SDS011;73131;50.820;16.274;2023-12-20T13:08:08;1.73;;;0.90;;
36441;SDS011;73131;50.820;16.274;2023-12-20T13:11:15;1.98;;;1.25;;
36441;SDS011;73131;50.820;16.274;2023-12-20T13:14:18;1.58;;;0.70;;
36441;SDS011;73131;50.820;16.274;2023-12-20T13:17:21;2.78;;;1.17;;
36441;SDS011;73131;50.820;16.274;2023-12-20T13:20:24;1.60;;;0.63;;
36441;SDS011;73131;50.820;16.274;2023-12-20T13:23:25;1.85;;;0.80;;
36441;SDS011;73131;50.820;16.274;2023-12-20T13:26:29;5.60;;;1.52;;
36441;SDS011;73131;50.820;16.274;2023-12-20T13:29:30;1.13;;;0.55;;
36441;SDS011;73131;50.820;16.274;2023-12-20T13:32:31;2.72;;;0.70;;
36441;SDS011;73131;50.820;16.274;2023-12-20T13:35:33;4.22;;;0.88;;
36441;SDS011;73131;50.820;16.274;2023-12-20T13:38:36;2.25;;;0.80;;
36441;SDS011;73131;50.820;16.274;2023-12-20T13:41:38;1.52;;;0.85;;
36441;SDS011;73131;50.820;16.274;2023-12-20T13:44:41;2.88;;;0.47;;
36441;SDS011;73131;50.820;16.274;2023-12-20T13:47:42;1.45;;;0.70;;
36441;SDS011;73131;50.820;16.274;2023-12-20T13:50:43;3.42;;;0.82;;
36441;SDS011;73131;50.820;16.274;2023-12-20T13:53:49;1.95;;;0.80;;
36441;SDS011;73131;50.820;16.274;2023-12-20T13:56:50;1.52;;;0.63;;
36441;SDS011;73131;50.820;16.274;2023-12-20T13:59:54;4.55;;;1.85;;
36441;SDS011;73131;50.820;16.274;2023-12-20T14:02:58;2.17;;;0.98;;
36441;SDS011;73131;50.820;16.274;2023-12-20T14:05:59;1.13;;;0.70;;
36441;SDS011;73131;50.820;16.274;2023-12-20T14:09:03;2.25;;;0.57;;
36441;SDS011;73131;50.820;16.274;2023-12-20T14:12:05;3.75;;;0.65;;
36441;SDS011;73131;50.820;16.274;2023-12-20T14:15:06;1.90;;;0.70;;
36441;SDS011;73131;50.820;16.274;2023-12-20T14:18:11;2.17;;;0.95;;
36441;SDS011;73131;50.820;16.274;2023-12-20T14:21:15;2.20;;;0.90;;
36441;SDS011;73131;50.820;16.274;2023-12-20T14:24:16;3.33;;;1.42;;
36441;SDS011;73131;50.820;16.274;2023-12-20T14:27:17;2.58;;;0.98;;
36441;SDS011;73131;50.820;16.274;2023-12-20T14:30:23;7.50;;;1.52;;
36441;SDS011;73131;50.820;16.274;2023-12-20T14:33:26;2.42;;;1.23;;
36441;SDS011;73131;50.820;16.274;2023-12-20T14:36:30;2.65;;;1.02;;
36441;SDS011;73131;50.820;16.274;2023-12-20T14:39:33;3.53;;;1.38;;
36441;SDS011;73131;50.820;16.274;2023-12-20T14:42:34;3.53;;;1.73;;
36441;SDS011;73131;50.820;16.274;2023-12-20T14:45:37;3.05;;;1.55;;
36441;SDS011;73131;50.820;16.274;2023-12-20T14:48:38;2.90;;;1.35;;
36441;SDS011;73131;50.820;16.274;2023-12-20T14:51:43;4.78;;;1.15;;
36441;SDS011;73131;50.820;16.274;2023-12-20T14:54:48;3.63;;;1.40;;
36441;SDS011;73131;50.820;16.274;2023-12-20T14:57:53;4.47;;;1.15;;
36441;SDS011;73131;50.820;16.274;2023-12-20T15:00:57;3.25;;;1.40;;
36441;SDS011;73131;50.820;16.274;2023-12-20T15:03:58;3.03;;;1.38;;
36441;SDS011;73131;50.820;16.274;2023-12-20T15:07:03;3.47;;;1.40;;
36441;SDS011;73131;50.820;16.274;2023-12-20T15:10:06;2.83;;;1.23;;
36441;SDS011;73131;50.820;16.274;2023-12-20T15:13:08;2.90;;;1.10;;
36441;SDS011;73131;50.820;16.274;2023-12-20T15:16:09;2.72;;;1.08;;
36441;SDS011;73131;50.820;16.274;2023-12-20T15:19:13;3.17;;;0.90;;
36441;SDS011;73131;50.820;16.274;2023-12-20T15:22:16;5.53;;;2.92;;
36441;SDS011;73131;50.820;16.274;2023-12-20T15:25:20;2.78;;;1.40;;
36441;SDS011;73131;50.820;16.274;2023-12-20T15:28:23;3.13;;;1.02;;
36441;SDS011;73131;50.820;16.274;2023-12-20T15:31:26;4.47;;;1.52;;
36441;SDS011;73131;50.820;16.274;2023-12-20T15:34:31;3.33;;;1.35;;
36441;SDS011;73131;50.820;16.274;2023-12-20T15:37:38;2.45;;;1.42;;
36441;SDS011;73131;50.820;16.274;2023-12-20T15:40:41;4.57;;;1.67;;
36441;SDS011;73131;50.820;16.274;2023-12-20T15:43:45;3.35;;;1.42;;
36441;SDS011;73131;50.820;16.274;2023-12-20T15:46:46;3.45;;;1.40;;
36441;SDS011;73131;50.820;16.274;2023-12-20T15:49:49;4.10;;;1.55;;
36441;SDS011;73131;50.820;16.274;2023-12-20T15:52:50;4.53;;;2.00;;
36441;SDS011;73131;50.820;16.274;2023-12-20T15:55:51;5.38;;;1.60;;
36441;SDS011;73131;50.820;16.274;2023-12-20T15:58:52;3.22;;;1.60;;
36441;SDS011;73131;50.820;16.274;2023-12-20T16:02:00;4.10;;;1.33;;
36441;SDS011;73131;50.820;16.274;2023-12-20T16:05:03;3.30;;;1.27;;
36441;SDS011;73131;50.820;16.274;2023-12-20T16:08:07;3.97;;;1.27;;
36441;SDS011;73131;50.820;16.274;2023-12-20T16:11:10;2.78;;;1.20;;
36441;SDS011;73131;50.820;16.274;2023-12-20T16:14:11;2.20;;;1.00;;
36441;SDS011;73131;50.820;16.274;2023-12-20T16:17:17;4.88;;;1.42;;
36441;SDS011;73131;50.820;16.274;2023-12-20T16:20:18;2.45;;;1.00;;
36441;SDS011;73131;50.820;16.274;2023-12-20T16:23:19;3.97;;;1.95;;
36441;SDS011;73131;50.820;16.274;2023-12-20T16:26:23;3.03;;;1.27;;
36441;SDS011;73131;50.820;16.274;2023-12-20T16:29:24;3.13;;;1.20;;
36441;SDS011;73131;50.820;16.274;2023-12-20T16:32:27;2.75;;;1.63;;
36441;SDS011;73131;50.820;16.274;2023-12-20T16:35:28;1.95;;;1.27;;
36441;SDS011;73131;50.820;16.274;2023-12-20T16:38:29;3.15;;;1.50;;
36441;SDS011;73131;50.820;16.274;2023-12-20T16:41:35;3.13;;;1.40;;
36441;SDS011;73131;50.820;16.274;2023-12-20T16:44:36;3.63;;;1.15;;
36441;SDS011;73131;50.820;16.274;2023-12-20T16:47:39;10.52;;;2.63;;
36441;SDS011;73131;50.820;16.274;2023-12-20T16:50:45;3.15;;;1.55;;
36441;SDS011;73131;50.820;16.274;2023-12-20T16:53:46;2.67;;;1.10;;
36441;SDS011;73131;50.820;16.274;2023-12-20T16:56:53;5.45;;;2.70;;
36441;SDS011;73131;50.820;16.274;2023-12-20T16:59:53;3.90;;;1.45;;
36441;SDS011;73131;50.820;16.274;2023-12-20T17:02:57;4.28;;;1.73;;
36441;SDS011;73131;50.820;16.274;2023-12-20T17:06:01;4.53;;;1.38;;
36441;SDS011;73131;50.820;16.274;2023-12-20T17:09:06;2.40;;;1.50;;
36441;SDS011;73131;50.820;16.274;2023-12-20T17:12:10;4.45;;;1.55;;
36441;SDS011;73131;50.820;16.274;2023-12-20T17:15:14;2.15;;;1.33;;
36441;SDS011;73131;50.820;16.274;2023-12-20T17:18:17;2.60;;;1.30;;
36441;SDS011;73131;50.820;16.274;2023-12-20T17:21:18;3.53;;;1.40;;
36441;SDS011;73131;50.820;16.274;2023-12-20T17:24:20;2.28;;;1.60;;
36441;SDS011;73131;50.820;16.274;2023-12-20T17:27:23;3.47;;;1.65;;
36441;SDS011;73131;50.820;16.274;2023-12-20T17:30:26;3.65;;;1.80;;
36441;SDS011;73131;50.820;16.274;2023-12-20T17:33:30;3.67;;;1.70;;
36441;SDS011;73131;50.820;16.274;2023-12-20T17:36:38;3.03;;;1.27;;
36441;SDS011;73131;50.820;16.274;2023-12-20T17:39:41;2.22;;;1.50;;
36441;SDS011;73131;50.820;16.274;2023-12-20T17:42:46;2.55;;;1.30;;
36441;SDS011;73131;50.820;16.274;2023-12-20T17:45:47;2.28;;;1.40;;
36441;SDS011;73131;50.820;16.274;2023-12-20T17:48:49;4.88;;;2.50;;
36441;SDS011;73131;50.820;16.274;2023-12-20T17:51:50;3.00;;;1.15;;
36441;SDS011;73131;50.820;16.274;2023-12-20T17:54:54;2.35;;;0.82;;
36441;SDS011;73131;50.820;16.274;2023-12-20T17:57:57;2.25;;;0.90;;
36441;SDS011;73131;50.820;16.274;2023-12-20T18:00:58;2.15;;;0.60;;
36441;SDS011;73131;50.820;16.274;2023-12-20T18:04:04;4.40;;;1.70;;
36441;SDS011;73131;50.820;16.274;2023-12-20T18:07:07;3.25;;;1.98;;